createdAt,value
2019-02-10T00:01:42.302Z,9.90
2019-02-10T00:04:11.322Z,9.90
2019-02-10T00:06:40.289Z,9.90
2019-02-10T00:09:09.284Z,9.90
2019-02-10T00:11:38.550Z,9.90
2019-02-10T00:14:07.550Z,9.90
2019-02-10T00:16:36.508Z,9.90
2019-02-10T00:19:05.349Z,9.80
2019-02-10T00:21:34.320Z,9.80
2019-02-10T00:24:03.566Z,9.80
2019-02-10T00:26:32.613Z,9.80
2019-02-10T00:29:01.609Z,9.90
2019-02-10T00:31:30.529Z,9.80
2019-02-10T00:33:59.517Z,9.80
2019-02-10T00:36:33.347Z,9.90
2019-02-10T00:38:59.362Z,9.90
2019-02-10T00:41:28.470Z,9.90
2019-02-10T00:43:57.537Z,9.90
2019-02-10T00:46:26.464Z,9.90
2019-02-10T00:48:55.402Z,10.00
2019-02-10T00:51:24.390Z,10.00
2019-02-10T00:53:53.334Z,10.00
2019-02-10T00:56:22.572Z,9.90
2019-02-10T00:58:51.750Z,9.90
2019-02-10T01:01:20.699Z,9.70
2019-02-10T01:03:49.716Z,9.70
2019-02-10T01:06:18.860Z,9.80
2019-02-10T01:08:47.966Z,9.80
2019-02-10T01:11:17.011Z,9.80
2019-02-10T01:13:46.084Z,9.80
2019-02-10T01:16:15.134Z,9.80
2019-02-10T01:19:07.149Z,9.70
2019-02-10T01:21:36.175Z,9.70
2019-02-10T01:24:05.284Z,9.70
2019-02-10T01:26:34.483Z,9.60
2019-02-10T01:29:03.517Z,9.60
2019-02-10T01:31:32.579Z,9.60
2019-02-10T01:34:01.582Z,9.50
2019-02-10T01:36:30.634Z,9.50
2019-02-10T01:38:59.594Z,9.50
2019-02-10T01:41:28.606Z,9.40
2019-02-10T01:43:57.948Z,9.40
2019-02-10T01:46:26.772Z,9.40
2019-02-10T01:48:55.806Z,9.30
2019-02-10T01:51:24.870Z,9.30
2019-02-10T01:53:54.000Z,9.40
2019-02-10T01:56:22.924Z,9.40
2019-02-10T01:58:51.930Z,9.30
2019-02-10T02:01:20.998Z,9.40
2019-02-10T02:03:49.982Z,9.40
2019-02-10T02:06:18.882Z,9.40
2019-02-10T02:08:48.211Z,9.40
2019-02-10T02:11:17.341Z,9.30
2019-02-10T02:13:46.346Z,9.30
2019-02-10T02:16:16.546Z,9.30
2019-02-10T02:18:45.626Z,9.30
2019-02-10T02:21:14.612Z,9.30
2019-02-10T02:23:43.609Z,9.20
2019-02-10T02:26:12.774Z,9.10
2019-02-10T02:28:41.861Z,9.10
2019-02-10T02:31:10.913Z,9.10
2019-02-10T02:33:40.345Z,9.10
2019-02-10T02:36:09.222Z,9.10
2019-02-10T02:38:38.421Z,9.10
2019-02-10T02:41:07.600Z,9.10
2019-02-10T02:43:36.691Z,9.10
2019-02-10T02:46:06.168Z,9.10
2019-02-10T02:48:35.112Z,9.10
2019-02-10T02:51:04.158Z,9.10
2019-02-10T02:53:33.335Z,9.10
2019-02-10T02:56:02.415Z,9.10
2019-02-10T02:58:31.287Z,9.10
2019-02-10T03:01:00.239Z,9.10
2019-02-10T03:03:29.216Z,9.00
2019-02-10T03:05:58.082Z,9.00
2019-02-10T03:08:26.933Z,9.00
2019-02-10T03:10:55.894Z,9.00
2019-02-10T03:13:24.837Z,9.00
2019-02-10T03:15:53.841Z,9.00
2019-02-10T03:18:23.488Z,9.00
2019-02-10T03:20:52.340Z,9.00
2019-02-10T03:23:21.276Z,9.00
2019-02-10T03:25:50.213Z,9.00
2019-02-10T03:28:19.151Z,9.00
2019-02-10T03:30:48.150Z,9.00
2019-02-10T03:33:17.200Z,9.00
2019-02-10T03:35:46.551Z,9.00
2019-02-10T03:38:15.689Z,9.00
2019-02-10T03:40:44.837Z,9.00
2019-02-10T03:43:13.800Z,9.00
2019-02-10T03:45:43.194Z,8.90
2019-02-10T03:48:14.409Z,8.90
2019-02-10T03:50:43.320Z,8.90
2019-02-10T03:53:12.290Z,8.90
2019-02-10T03:55:41.632Z,8.80
2019-02-10T03:58:10.862Z,8.80
2019-02-10T04:00:40.436Z,8.80
2019-02-10T04:03:09.735Z,8.80
2019-02-10T04:05:38.883Z,8.80
2019-02-10T04:08:07.960Z,8.80
2019-02-10T04:10:36.930Z,8.80
2019-02-10T04:13:06.351Z,8.80
2019-02-10T04:15:35.349Z,8.80
2019-02-10T04:18:04.505Z,8.80
2019-02-10T04:20:33.721Z,8.70
2019-02-10T04:23:02.646Z,8.70
2019-02-10T04:25:32.427Z,8.70
2019-02-10T04:28:01.503Z,8.60
2019-02-10T04:30:30.499Z,8.70
2019-02-10T04:32:59.496Z,8.70
2019-02-10T04:35:28.472Z,8.70
2019-02-10T04:37:57.555Z,8.70
2019-02-10T04:40:26.611Z,8.60
2019-02-10T04:42:55.716Z,8.50
2019-02-10T04:45:24.883Z,8.60
2019-02-10T04:47:53.982Z,8.60
2019-02-10T04:50:22.878Z,8.60
2019-02-10T04:52:51.942Z,8.70
2019-02-10T04:55:21.050Z,8.70
2019-02-10T04:57:50.041Z,8.70
2019-02-10T05:00:19.217Z,8.70
2019-02-10T05:02:48.216Z,8.70
2019-02-10T05:05:17.290Z,8.70
2019-02-10T05:07:54.333Z,8.70
2019-02-10T05:10:16.861Z,8.70
2019-02-10T05:12:45.852Z,8.70
2019-02-10T05:15:14.786Z,8.70
2019-02-10T05:17:43.941Z,8.70
2019-02-10T05:20:12.852Z,8.80
2019-02-10T05:22:41.863Z,8.80
2019-02-10T05:25:10.862Z,8.80
2019-02-10T05:27:39.938Z,8.80
2019-02-10T05:30:09.043Z,8.80
2019-02-10T05:32:38.013Z,8.70
2019-02-10T05:35:07.385Z,8.70
2019-02-10T05:37:36.407Z,8.70
2019-02-10T05:40:05.747Z,8.70
2019-02-10T05:42:34.649Z,8.80
2019-02-10T05:45:03.597Z,8.80
2019-02-10T05:47:32.443Z,8.80
2019-02-10T05:50:01.393Z,8.80
2019-02-10T05:52:30.602Z,8.80
2019-02-10T05:54:59.566Z,8.80
2019-02-10T05:57:28.783Z,8.80
2019-02-10T05:59:57.966Z,8.80
2019-02-10T06:02:34.267Z,8.90
2019-02-10T06:05:18.499Z,8.90
2019-02-10T06:07:48.050Z,8.90
2019-02-10T06:10:17.234Z,8.90
2019-02-10T06:12:46.570Z,8.80
2019-02-10T06:15:15.992Z,8.80
2019-02-10T06:17:45.018Z,8.80
2019-02-10T06:20:14.050Z,8.80
2019-02-10T06:22:42.955Z,8.80
2019-02-10T06:25:13.021Z,8.80
2019-02-10T06:27:42.065Z,8.80
2019-02-10T06:30:11.300Z,8.80
2019-02-10T06:32:40.114Z,8.80
2019-02-10T06:35:10.028Z,8.80
2019-02-10T06:37:39.032Z,8.90
2019-02-10T06:40:11.920Z,8.90
2019-02-10T06:42:40.834Z,8.90
2019-02-10T06:45:13.882Z,8.90
2019-02-10T06:47:43.317Z,8.90
2019-02-10T06:50:12.488Z,8.90
2019-02-10T06:52:41.610Z,8.90
2019-02-10T06:55:12.239Z,8.80
2019-02-10T06:57:41.245Z,8.90
2019-02-10T07:00:38.501Z,8.80
2019-02-10T07:03:46.181Z,8.90
2019-02-10T07:06:15.651Z,8.90
2019-02-10T07:08:44.779Z,8.90
2019-02-10T07:11:13.931Z,8.90
2019-02-10T07:13:45.144Z,8.90
2019-02-10T07:16:39.904Z,8.90
2019-02-10T07:19:44.351Z,8.90
2019-02-10T07:22:50.364Z,9.00
2019-02-10T07:25:47.886Z,9.00
2019-02-10T07:29:08.733Z,9.00
2019-02-10T07:31:40.517Z,9.00
2019-02-10T07:34:38.796Z,9.00
2019-02-10T07:37:49.172Z,9.10
2019-02-10T07:40:57.996Z,9.10
2019-02-10T07:43:52.230Z,9.10
2019-02-10T07:46:56.338Z,9.10
2019-02-10T07:50:02.800Z,9.10
2019-02-10T07:53:19.198Z,9.20
2019-02-10T07:56:37.350Z,9.10
2019-02-10T07:59:35.162Z,9.10
2019-02-10T08:02:58.855Z,9.20
2019-02-10T08:06:17.855Z,9.30
2019-02-10T08:09:28.440Z,9.30
2019-02-10T08:12:37.356Z,9.30
2019-02-10T08:15:31.248Z,9.30
2019-02-10T08:18:15.421Z,9.30
2019-02-10T08:21:21.208Z,9.30
2019-02-10T08:24:30.272Z,9.30
2019-02-10T08:27:47.862Z,9.30
2019-02-10T08:30:38.850Z,9.30
2019-02-10T08:33:34.264Z,9.30
2019-02-10T08:36:39.991Z,9.30
2019-02-10T08:39:24.491Z,9.40
2019-02-10T08:42:22.196Z,9.40
2019-02-10T08:45:22.953Z,9.40
2019-02-10T08:48:27.904Z,9.50
2019-02-10T08:51:38.556Z,9.50
2019-02-10T08:54:08.032Z,9.50
2019-02-10T08:56:36.922Z,9.40
2019-02-10T08:59:05.897Z,9.40
2019-02-10T09:01:35.038Z,9.30
2019-02-10T09:04:04.228Z,9.30
2019-02-10T09:06:33.659Z,9.30
2019-02-10T09:09:03.676Z,9.20
2019-02-10T09:11:32.723Z,9.20
2019-02-10T09:14:01.796Z,9.20
2019-02-10T09:16:31.050Z,9.10
2019-02-10T09:19:00.663Z,9.00
2019-02-10T09:21:29.722Z,9.00
2019-02-10T09:23:58.892Z,9.00
2019-02-10T09:26:27.937Z,9.00
2019-02-10T09:28:57.279Z,9.10
2019-02-10T09:31:27.770Z,9.10
2019-02-10T09:33:56.809Z,9.00
2019-02-10T09:36:25.961Z,9.00
2019-02-10T09:38:54.998Z,9.00
2019-02-10T09:41:24.523Z,9.00
2019-02-10T09:43:53.665Z,9.10
2019-02-10T09:46:22.709Z,9.20
2019-02-10T09:48:51.702Z,9.20
2019-02-10T09:51:21.377Z,9.20
2019-02-10T09:53:50.307Z,9.20
2019-02-10T09:56:19.449Z,9.10
2019-02-10T09:58:48.509Z,9.20
2019-02-10T10:01:17.360Z,9.00
2019-02-10T10:03:46.513Z,9.00
2019-02-10T10:06:15.447Z,9.00
2019-02-10T10:08:44.523Z,9.00
2019-02-10T10:11:14.113Z,9.00
2019-02-10T10:13:43.509Z,8.90
2019-02-10T10:16:12.643Z,8.90
2019-02-10T10:18:41.509Z,9.00
2019-02-10T10:21:11.103Z,9.10
2019-02-10T10:23:40.421Z,9.10
2019-02-10T10:26:09.309Z,9.10
2019-02-10T10:28:38.452Z,9.20
2019-02-10T10:31:07.504Z,9.10
2019-02-10T10:33:36.439Z,9.00
2019-02-10T10:36:05.499Z,9.00
2019-02-10T10:38:34.478Z,9.00
2019-02-10T10:41:03.685Z,9.10
2019-02-10T10:43:32.847Z,9.10
2019-02-10T10:46:01.925Z,9.00
2019-02-10T10:48:31.004Z,9.00
2019-02-10T10:50:59.987Z,8.90
2019-02-10T10:53:28.903Z,8.90
2019-02-10T10:56:01.565Z,9.00
2019-02-10T10:58:30.499Z,8.90
2019-02-10T11:00:59.618Z,9.00
2019-02-10T11:03:28.758Z,9.00
2019-02-10T11:05:57.888Z,9.00
2019-02-10T11:08:26.857Z,9.00
2019-02-10T11:10:55.963Z,8.90
2019-02-10T11:13:25.034Z,8.90
2019-02-10T11:15:54.101Z,8.80
2019-02-10T11:18:23.241Z,8.80
2019-02-10T11:20:52.261Z,8.80
2019-02-10T11:23:21.798Z,8.90
2019-02-10T11:25:51.002Z,8.90
2019-02-10T11:28:19.883Z,9.00
2019-02-10T11:30:49.559Z,9.00
2019-02-10T11:33:18.705Z,9.10
2019-02-10T11:35:47.877Z,9.20
2019-02-10T11:38:17.494Z,9.20
2019-02-10T11:40:48.813Z,9.30
2019-02-10T11:43:17.935Z,9.20
2019-02-10T11:45:47.209Z,9.10
2019-02-10T11:48:16.626Z,9.00
2019-02-10T11:50:45.766Z,9.10
2019-02-10T11:53:15.695Z,9.10
2019-02-10T11:55:44.738Z,9.30
2019-02-10T11:58:13.963Z,9.40
2019-02-10T12:00:43.015Z,9.40
2019-02-10T12:03:12.291Z,9.40
2019-02-10T12:05:41.257Z,9.40
2019-02-10T12:08:10.559Z,9.50
2019-02-10T12:10:39.611Z,9.60
2019-02-10T12:13:08.943Z,9.60
2019-02-10T12:15:38.189Z,9.60
2019-02-10T12:18:07.219Z,9.60
2019-02-10T12:20:36.295Z,9.50
2019-02-10T12:23:05.411Z,9.40
2019-02-10T12:25:34.431Z,9.40
2019-02-10T12:28:03.690Z,9.50
2019-02-10T12:30:32.825Z,9.50
2019-02-10T12:33:01.998Z,9.50
2019-02-10T12:35:32.164Z,9.50
2019-02-10T12:38:01.388Z,9.50
2019-02-10T12:40:30.625Z,9.60
2019-02-10T12:42:59.895Z,9.60
2019-02-10T12:45:29.114Z,9.60
2019-02-10T12:47:58.198Z,9.60
2019-02-10T12:50:27.348Z,9.60
2019-02-10T12:52:56.529Z,9.60
2019-02-10T12:55:27.280Z,9.50
2019-02-10T12:57:56.773Z,9.50
2019-02-10T13:00:26.021Z,9.50
2019-02-10T13:02:55.068Z,9.50
2019-02-10T13:05:24.113Z,9.50
2019-02-10T13:07:53.069Z,9.50
2019-02-10T13:10:22.134Z,9.50
2019-02-10T13:12:51.084Z,9.50
2019-02-10T13:15:21.759Z,9.50
2019-02-10T13:17:52.565Z,9.60
2019-02-10T13:20:22.047Z,9.60
2019-02-10T13:22:55.293Z,9.70
2019-02-10T13:25:27.225Z,9.70
2019-02-10T13:27:56.407Z,9.60
2019-02-10T13:30:27.244Z,9.70
2019-02-10T13:32:56.358Z,9.70
2019-02-10T13:35:25.511Z,9.70
2019-02-10T13:37:54.945Z,9.70
2019-02-10T13:40:24.202Z,9.70
2019-02-10T13:42:53.149Z,9.70
2019-02-10T13:45:22.290Z,9.80
2019-02-10T13:47:51.712Z,9.70
2019-02-10T13:50:20.904Z,9.80
2019-02-10T13:52:49.864Z,9.80
2019-02-10T13:55:21.841Z,9.80
2019-02-10T13:57:51.894Z,9.90
2019-02-10T14:00:21.204Z,9.90
2019-02-10T14:02:53.612Z,9.80
2019-02-10T14:05:23.011Z,9.70
2019-02-10T14:07:52.296Z,9.70
2019-02-10T14:10:25.586Z,9.80
2019-02-10T14:12:55.546Z,9.80
2019-02-10T14:15:24.607Z,9.80
2019-02-10T14:17:53.840Z,9.80
2019-02-10T14:20:22.957Z,9.80
2019-02-10T14:22:54.288Z,9.90
2019-02-10T14:25:23.533Z,9.90
2019-02-10T14:27:52.835Z,9.90
2019-02-10T14:30:21.981Z,10.00
2019-02-10T14:32:51.178Z,10.00
2019-02-10T14:35:20.772Z,10.00
2019-02-10T14:37:56.568Z,10.00
2019-02-10T14:40:33.226Z,9.90
2019-02-10T14:42:59.928Z,9.90
2019-02-10T14:45:31.668Z,9.80
2019-02-10T14:48:09.557Z,9.80
2019-02-10T14:50:38.993Z,9.90
2019-02-10T14:53:08.008Z,9.90
2019-02-10T14:55:37.481Z,9.90
2019-02-10T14:58:07.132Z,9.80
2019-02-10T15:00:36.391Z,9.80
2019-02-10T15:03:05.746Z,9.80
2019-02-10T15:05:35.388Z,9.80
2019-02-10T15:08:07.446Z,9.90
2019-02-10T15:10:41.926Z,9.90
2019-02-10T15:13:09.343Z,9.90
2019-02-10T15:15:38.588Z,10.00
2019-02-10T15:18:08.137Z,9.90
2019-02-10T15:20:38.191Z,9.90
2019-02-10T15:23:11.506Z,10.00
2019-02-10T15:25:42.909Z,9.90
2019-02-10T15:28:11.824Z,9.90
2019-02-10T15:30:41.168Z,9.90
2019-02-10T15:33:10.427Z,9.90
2019-02-10T15:35:39.520Z,9.90
2019-02-10T15:38:12.006Z,9.90
2019-02-10T15:40:41.207Z,9.90
2019-02-10T15:43:11.663Z,9.90
2019-02-10T15:45:43.994Z,9.90
2019-02-10T15:48:16.160Z,9.90
2019-02-10T15:50:45.434Z,9.90
2019-02-10T15:53:14.415Z,9.90
2019-02-10T15:55:43.432Z,9.90
2019-02-10T15:58:12.502Z,9.90
2019-02-10T16:00:41.696Z,9.90
2019-02-10T16:03:10.926Z,10.00
2019-02-10T16:05:40.098Z,9.90
2019-02-10T16:08:09.129Z,9.80
2019-02-10T16:10:39.312Z,9.80
2019-02-10T16:13:08.950Z,9.80
2019-02-10T16:15:38.234Z,9.80
2019-02-10T16:18:07.745Z,9.90
2019-02-10T16:20:36.849Z,9.90
2019-02-10T16:23:06.412Z,9.90
2019-02-10T16:25:37.957Z,9.90
2019-02-10T16:28:11.459Z,9.90
2019-02-10T16:30:42.002Z,9.90
2019-02-10T16:33:11.611Z,9.90
2019-02-10T16:35:40.854Z,9.90
2019-02-10T16:38:10.107Z,10.00
2019-02-10T16:40:39.489Z,10.00
2019-02-10T16:43:08.809Z,10.00
2019-02-10T16:45:39.249Z,10.00
2019-02-10T16:48:08.603Z,10.00
2019-02-10T16:50:40.439Z,10.00
2019-02-10T16:53:11.151Z,10.00
2019-02-10T16:55:43.385Z,9.90
2019-02-10T16:58:12.558Z,10.00
2019-02-10T17:00:49.456Z,10.00
2019-02-10T17:03:24.413Z,10.00
2019-02-10T17:05:56.661Z,10.00
2019-02-10T17:08:31.515Z,10.00
2019-02-10T17:11:04.273Z,10.10
2019-02-10T17:13:36.282Z,10.00
2019-02-10T17:16:05.908Z,10.10
2019-02-10T17:18:35.631Z,10.10
2019-02-10T17:21:04.894Z,10.10
2019-02-10T17:23:34.311Z,10.00
2019-02-10T17:26:03.462Z,10.10
2019-02-10T17:28:32.926Z,10.10
2019-02-10T17:31:02.381Z,10.10
2019-02-10T17:33:31.677Z,10.20
2019-02-10T17:36:01.177Z,10.20
2019-02-10T17:38:31.977Z,10.10
2019-02-10T17:41:11.412Z,10.20
2019-02-10T17:43:40.609Z,10.20
2019-02-10T17:46:09.861Z,10.20
2019-02-10T17:48:39.194Z,10.30
2019-02-10T17:51:10.196Z,10.30
2019-02-10T17:53:39.130Z,10.30
2019-02-10T17:56:08.449Z,10.20
2019-02-10T17:58:37.728Z,10.20
2019-02-10T18:01:10.165Z,10.20
2019-02-10T18:03:39.459Z,10.20
2019-02-10T18:06:09.044Z,10.30
2019-02-10T18:08:38.423Z,10.30
2019-02-10T18:11:10.375Z,10.30
2019-02-10T18:13:39.778Z,10.30
2019-02-10T18:16:36.825Z,10.30
2019-02-10T18:19:27.984Z,10.40
2019-02-10T18:22:24.833Z,10.40
2019-02-10T18:25:16.009Z,10.40
2019-02-10T18:28:01.538Z,10.40
2019-02-10T18:30:43.453Z,10.40
2019-02-10T18:33:31.785Z,10.40
2019-02-10T18:36:23.148Z,10.40
2019-02-10T18:38:59.891Z,10.40
2019-02-10T18:41:50.876Z,10.40
2019-02-10T18:44:26.137Z,10.40
2019-02-10T18:47:08.867Z,10.40
2019-02-10T18:49:52.555Z,10.40
2019-02-10T18:52:33.579Z,10.40
2019-02-10T18:55:22.081Z,10.40
2019-02-10T18:58:08.285Z,10.30
2019-02-10T19:00:56.475Z,10.40
2019-02-10T19:03:46.318Z,10.40
2019-02-10T19:06:22.253Z,10.40
2019-02-10T19:09:13.575Z,10.30
2019-02-10T19:12:00.567Z,10.30
2019-02-10T19:14:44.468Z,10.40
2019-02-10T19:17:22.754Z,10.40
2019-02-10T19:20:08.231Z,10.40
2019-02-10T19:23:02.688Z,10.30
2019-02-10T19:25:53.642Z,10.30
2019-02-10T19:28:32.351Z,10.40
2019-02-10T19:31:23.908Z,10.40
2019-02-10T19:34:30.604Z,10.40
2019-02-10T19:37:11.870Z,10.40
2019-02-10T19:40:02.370Z,10.30
2019-02-10T19:43:05.397Z,10.40
2019-02-10T19:45:40.608Z,10.40
2019-02-10T19:48:34.497Z,10.40
2019-02-10T19:51:30.113Z,10.40
2019-02-10T19:54:22.641Z,10.30
2019-02-10T19:57:09.397Z,10.30
2019-02-10T19:59:56.205Z,10.40
2019-02-10T20:02:42.842Z,10.40
2019-02-10T20:05:19.248Z,10.40
2019-02-10T20:08:16.660Z,10.40
2019-02-10T20:11:03.471Z,10.40
2019-02-10T20:13:41.402Z,10.40
2019-02-10T20:16:19.979Z,10.40
2019-02-10T20:19:06.712Z,10.50
2019-02-10T20:21:54.865Z,10.50
2019-02-10T20:24:42.022Z,10.50
2019-02-10T20:27:20.583Z,10.40
2019-02-10T20:30:00.309Z,10.40
2019-02-10T20:32:47.321Z,10.40
2019-02-10T20:35:41.396Z,10.40
2019-02-10T20:38:44.841Z,10.40
2019-02-10T20:41:33.170Z,10.40
2019-02-10T20:44:30.329Z,10.40
2019-02-10T20:47:18.985Z,10.40
2019-02-10T20:50:21.982Z,10.40
2019-02-10T20:53:04.022Z,10.40
2019-02-10T20:55:52.125Z,10.40
2019-02-10T20:58:42.031Z,10.40
2019-02-10T21:01:28.745Z,10.50
2019-02-10T21:04:13.788Z,10.50
2019-02-10T21:07:04.863Z,10.50
2019-02-10T21:09:51.075Z,10.50
2019-02-10T21:12:27.204Z,10.50
2019-02-10T21:15:28.426Z,10.40
2019-02-10T21:18:23.090Z,10.40
2019-02-10T21:21:14.215Z,10.50
2019-02-10T21:24:08.794Z,10.50
2019-02-10T21:27:00.631Z,10.50
2019-02-10T21:29:51.846Z,10.50
2019-02-10T21:32:56.278Z,10.50
2019-02-10T21:35:31.696Z,10.50
2019-02-10T21:38:28.633Z,10.50
2019-02-10T21:41:07.960Z,10.50
2019-02-10T21:43:45.350Z,10.40
2019-02-10T21:46:29.637Z,10.30
2019-02-10T21:49:18.678Z,10.30
2019-02-10T21:51:47.926Z,10.30
2019-02-10T21:54:16.939Z,10.20
2019-02-10T21:56:46.042Z,10.10
2019-02-10T21:59:15.066Z,10.10
2019-02-10T22:01:44.326Z,10.10
2019-02-10T22:04:13.448Z,10.10
2019-02-10T22:06:42.554Z,10.10
2019-02-10T22:09:11.695Z,10.10
2019-02-10T22:11:40.842Z,10.10
2019-02-10T22:14:10.104Z,10.00
2019-02-10T22:16:39.121Z,10.00
2019-02-10T22:19:08.338Z,10.00
2019-02-10T22:21:37.222Z,10.00
2019-02-10T22:24:06.438Z,10.10
2019-02-10T22:26:35.485Z,10.10
2019-02-10T22:29:04.543Z,10.10
2019-02-10T22:31:33.684Z,10.10
2019-02-10T22:34:02.764Z,10.00
2019-02-10T22:36:31.906Z,10.00
2019-02-10T22:39:01.072Z,10.00
2019-02-10T22:41:30.386Z,10.10
2019-02-10T22:43:59.372Z,10.00
2019-02-10T22:46:28.788Z,10.00
2019-02-10T22:48:57.773Z,10.00
2019-02-10T22:51:27.314Z,10.00
2019-02-10T22:53:56.595Z,10.00
2019-02-10T22:56:25.571Z,10.00
2019-02-10T22:58:54.761Z,10.00
2019-02-10T23:01:23.720Z,9.90
2019-02-10T23:03:52.818Z,10.00
2019-02-10T23:06:21.999Z,10.00
2019-02-10T23:08:51.090Z,9.90
2019-02-10T23:11:20.087Z,9.90
2019-02-10T23:13:49.278Z,9.80
2019-02-10T23:16:18.203Z,9.80
2019-02-10T23:18:47.343Z,9.80
2019-02-10T23:21:16.455Z,9.80
2019-02-10T23:23:45.558Z,9.80
2019-02-10T23:26:14.953Z,9.80
2019-02-10T23:28:44.279Z,9.70
2019-02-10T23:31:13.304Z,9.60
2019-02-10T23:33:42.422Z,9.50
2019-02-10T23:36:11.513Z,9.50
2019-02-10T23:38:40.496Z,9.50
2019-02-10T23:41:09.527Z,9.50
2019-02-10T23:43:38.623Z,9.30
2019-02-10T23:46:07.902Z,9.30
2019-02-10T23:48:36.976Z,9.30
2019-02-10T23:51:06.122Z,9.10
2019-02-10T23:53:35.097Z,9.10
2019-02-10T23:56:04.215Z,9.10
2019-02-10T23:58:34.298Z,9.10
